createdAt,value
2023-05-14T00:00:11.078Z,101067.68
2023-05-14T00:01:11.084Z,101065.45
2023-05-14T00:02:11.085Z,101063.93
2023-05-14T00:03:11.195Z,101063.94
2023-05-14T00:04:11.150Z,101059.88
2023-05-14T00:05:11.086Z,101056.74
2023-05-14T00:06:11.089Z,101058.66
2023-05-14T00:07:11.079Z,101055.10
2023-05-14T00:08:11.073Z,101058.33
2023-05-14T00:09:11.080Z,101055.67
2023-05-14T00:10:11.078Z,101058.43
2023-05-14T00:11:12.090Z,101056.41
2023-05-14T00:12:11.079Z,101058.31
2023-05-14T00:13:11.075Z,101051.91
2023-05-14T00:14:11.079Z,101050.68
2023-05-14T00:15:11.082Z,101046.50
2023-05-14T00:16:11.143Z,101044.10
2023-05-14T00:17:11.083Z,101044.15
2023-05-14T00:18:11.085Z,101042.14
2023-05-14T00:19:11.238Z,101043.41
2023-05-14T00:20:11.080Z,101044.51
2023-05-14T00:21:11.085Z,101043.41
2023-05-14T00:22:11.098Z,101043.80
2023-05-14T00:23:11.077Z,101044.91
2023-05-14T00:24:11.080Z,101040.75
2023-05-14T00:25:11.079Z,101039.19
2023-05-14T00:26:11.076Z,101038.08
2023-05-14T00:27:11.080Z,101040.27
2023-05-14T00:28:11.084Z,101034.20
2023-05-14T00:29:11.077Z,101036.72
2023-05-14T00:30:11.086Z,101033.82
2023-05-14T00:31:11.132Z,101033.90
2023-05-14T00:32:11.084Z,101031.30
2023-05-14T00:33:11.090Z,101035.45
2023-05-14T00:34:11.078Z,101030.83
2023-05-14T00:35:11.101Z,101031.63
2023-05-14T00:36:11.092Z,101033.15
2023-05-14T00:37:11.081Z,101028.36
2023-05-14T00:38:11.084Z,101028.18
2023-05-14T00:39:11.087Z,101029.24
2023-05-14T00:40:11.171Z,101026.50
2023-05-14T00:41:11.076Z,101024.77
2023-05-14T00:42:11.084Z,101023.51
2023-05-14T00:43:11.082Z,101022.64
2023-05-14T00:44:11.080Z,101021.08
2023-05-14T00:45:11.084Z,101018.71
2023-05-14T00:46:11.108Z,101015.97
2023-05-14T00:47:11.079Z,101015.64
2023-05-14T00:48:11.091Z,101013.02
2023-05-14T00:49:11.082Z,101014.91
2023-05-14T00:50:11.088Z,101011.43
2023-05-14T00:51:11.096Z,101009.52
2023-05-14T00:52:11.084Z,101013.23
2023-05-14T00:53:14.086Z,101008.43
2023-05-14T00:54:11.085Z,101005.68
2023-05-14T00:55:11.194Z,101006.91
2023-05-14T00:56:11.084Z,101003.12
2023-05-14T00:57:11.086Z,101003.36
2023-05-14T00:58:14.084Z,101003.78
2023-05-14T00:59:11.088Z,101005.18
2023-05-14T01:00:11.101Z,101004.55
2023-05-14T01:01:11.120Z,101002.53
2023-05-14T01:02:11.073Z,101003.19
2023-05-14T01:03:11.168Z,100997.22
2023-05-14T01:04:11.063Z,100998.30
2023-05-14T01:05:11.064Z,100999.14
2023-05-14T01:06:19.070Z,100998.80
2023-05-14T01:07:21.101Z,100998.66
2023-05-14T01:08:18.066Z,100998.05
2023-05-14T01:09:21.100Z,100997.82
2023-05-14T01:10:17.068Z,100994.46
2023-05-14T01:11:19.079Z,100990.00
2023-05-14T01:12:17.064Z,100992.88
2023-05-14T01:13:17.071Z,100995.48
2023-05-14T01:14:19.062Z,100991.71
2023-05-14T01:15:15.064Z,100990.75
2023-05-14T01:16:13.169Z,100986.18
2023-05-14T01:17:11.069Z,100987.87
2023-05-14T01:18:11.101Z,100983.77
2023-05-14T01:19:21.105Z,100985.22
2023-05-14T01:20:11.073Z,100981.73
2023-05-14T01:21:19.067Z,100982.14
2023-05-14T01:22:11.073Z,100980.88
2023-05-14T01:23:11.067Z,100974.93
2023-05-14T01:24:11.072Z,100975.68
2023-05-14T01:25:11.062Z,100974.52
2023-05-14T01:26:11.076Z,100973.15
2023-05-14T01:27:21.068Z,100973.38
2023-05-14T01:28:19.065Z,100972.70
2023-05-14T01:29:18.066Z,100977.32
2023-05-14T01:30:21.312Z,100973.10
2023-05-14T01:31:17.098Z,100973.94
2023-05-14T01:32:11.142Z,100972.29
2023-05-14T01:33:16.089Z,100973.12
2023-05-14T01:34:11.070Z,100970.81
2023-05-14T01:35:11.074Z,100970.66
2023-05-14T01:36:11.063Z,100970.77
2023-05-14T01:37:11.064Z,100970.71
2023-05-14T01:38:12.074Z,100972.98
2023-05-14T01:39:11.069Z,100970.82
2023-05-14T01:40:11.064Z,100973.12
2023-05-14T01:41:11.069Z,100972.99
2023-05-14T01:42:11.068Z,100969.22
2023-05-14T01:43:11.100Z,100966.50
2023-05-14T01:44:11.085Z,100964.21
2023-05-14T01:45:11.065Z,100965.39
2023-05-14T01:46:11.114Z,100963.48
2023-05-14T01:47:11.080Z,100964.28
2023-05-14T01:48:11.168Z,100964.63
2023-05-14T01:49:11.090Z,100964.23
2023-05-14T01:50:11.063Z,100963.90
2023-05-14T01:51:11.064Z,100963.22
2023-05-14T01:52:11.065Z,100963.23
2023-05-14T01:53:11.069Z,100961.93
2023-05-14T01:54:11.072Z,100965.02
2023-05-14T01:55:11.065Z,100962.65
2023-05-14T01:56:11.067Z,100963.09
2023-05-14T01:57:11.073Z,100959.60
2023-05-14T01:58:11.075Z,100959.00
2023-05-14T01:59:11.073Z,100957.96
2023-05-14T02:00:11.074Z,100955.83
2023-05-14T02:01:11.081Z,100954.26
2023-05-14T02:02:11.080Z,100955.20
2023-05-14T02:03:11.113Z,100955.27
2023-05-14T02:04:11.109Z,100947.87
2023-05-14T02:05:11.075Z,100945.58
2023-05-14T02:06:11.072Z,100947.36
2023-05-14T02:07:11.068Z,100941.46
2023-05-14T02:08:11.063Z,100943.45
2023-05-14T02:09:11.066Z,100945.97
2023-05-14T02:10:11.080Z,100944.75
2023-05-14T02:11:11.065Z,100946.88
2023-05-14T02:12:11.088Z,100945.37
2023-05-14T02:13:11.073Z,100945.44
2023-05-14T02:14:11.067Z,100947.64
2023-05-14T02:15:11.134Z,100946.94
2023-05-14T02:16:11.111Z,100948.02
2023-05-14T02:17:11.064Z,100949.85
2023-05-14T02:18:11.099Z,100946.77
2023-05-14T02:19:11.138Z,100946.34
2023-05-14T02:20:11.085Z,100947.73
2023-05-14T02:21:11.069Z,100946.58
2023-05-14T02:22:11.084Z,100945.86
2023-05-14T02:23:11.082Z,100945.95
2023-05-14T02:24:11.074Z,100947.02
2023-05-14T02:25:11.087Z,100948.16
2023-05-14T02:26:11.069Z,100942.76
2023-05-14T02:27:11.074Z,100944.73
2023-05-14T02:28:11.079Z,100939.43
2023-05-14T02:29:11.073Z,100934.84
2023-05-14T02:30:11.071Z,100936.05
2023-05-14T02:31:11.136Z,100936.01
2023-05-14T02:32:11.091Z,100931.31
2023-05-14T02:33:11.192Z,100935.82
2023-05-14T02:34:12.085Z,100930.81
2023-05-14T02:35:11.091Z,100925.89
2023-05-14T02:36:11.079Z,100924.09
2023-05-14T02:37:11.071Z,100925.68
2023-05-14T02:38:11.073Z,100922.03
2023-05-14T02:39:11.072Z,100925.80
2023-05-14T02:40:11.075Z,100922.30
2023-05-14T02:41:11.081Z,100919.23
2023-05-14T02:42:11.073Z,100920.33
2023-05-14T02:43:11.070Z,100919.08
2023-05-14T02:44:11.075Z,100917.96
2023-05-14T02:45:11.076Z,100918.41
2023-05-14T02:46:11.080Z,100916.25
2023-05-14T02:47:11.154Z,100915.24
2023-05-14T02:48:11.143Z,100912.86
2023-05-14T02:49:11.083Z,100911.56
2023-05-14T02:50:11.083Z,100912.12
2023-05-14T02:51:11.085Z,100907.70
2023-05-14T02:52:11.078Z,100909.02
2023-05-14T02:53:11.084Z,100907.71
2023-05-14T02:54:11.075Z,100904.05
2023-05-14T02:55:11.080Z,100905.95
2023-05-14T02:56:11.082Z,100906.18
2023-05-14T02:57:11.076Z,100907.28
2023-05-14T02:58:11.079Z,100905.32
2023-05-14T02:59:11.086Z,100904.52
2023-05-14T03:00:11.087Z,100901.27
2023-05-14T03:01:11.116Z,100901.03
2023-05-14T03:02:11.125Z,100900.61
2023-05-14T03:03:11.110Z,100899.10
2023-05-14T03:04:11.081Z,100901.22
2023-05-14T03:05:11.084Z,100903.26
2023-05-14T03:06:11.081Z,100902.34
2023-05-14T03:07:11.081Z,100899.56
2023-05-14T03:08:11.080Z,100897.66
2023-05-14T03:09:11.077Z,100894.42
2023-05-14T03:10:11.078Z,100892.87
2023-05-14T03:11:11.083Z,100895.72
2023-05-14T03:12:11.080Z,100893.81
2023-05-14T03:13:13.074Z,100891.48
2023-05-14T03:14:11.083Z,100890.51
2023-05-14T03:15:11.087Z,100888.45
2023-05-14T03:16:11.141Z,100885.66
2023-05-14T03:17:11.240Z,100882.55
2023-05-14T03:18:11.081Z,100884.54
2023-05-14T03:19:11.156Z,100882.58
2023-05-14T03:20:11.081Z,100881.50
2023-05-14T03:21:11.087Z,100880.79
2023-05-14T03:22:11.077Z,100880.55
2023-05-14T03:23:11.106Z,100878.80
2023-05-14T03:24:11.093Z,100876.32
2023-05-14T03:25:11.078Z,100878.51
2023-05-14T03:26:11.082Z,100875.16
2023-05-14T03:27:11.087Z,100872.87
2023-05-14T03:28:11.079Z,100868.37
2023-05-14T03:29:11.125Z,100866.15
2023-05-14T03:30:11.088Z,100865.43
2023-05-14T03:31:11.115Z,100866.09
2023-05-14T03:32:11.076Z,100863.46
2023-05-14T03:33:11.088Z,100865.92
2023-05-14T03:34:11.089Z,100864.43
2023-05-14T03:35:11.076Z,100864.42
2023-05-14T03:36:11.082Z,100861.94
2023-05-14T03:37:11.083Z,100864.08
2023-05-14T03:38:11.084Z,100864.25
2023-05-14T03:39:11.081Z,100861.89
2023-05-14T03:40:11.089Z,100863.20
2023-05-14T03:41:11.091Z,100863.24
2023-05-14T03:42:11.077Z,100860.78
2023-05-14T03:43:11.090Z,100864.32
2023-05-14T03:44:11.086Z,100864.99
2023-05-14T03:45:11.081Z,100865.18
2023-05-14T03:46:11.088Z,100864.28
2023-05-14T03:47:11.081Z,100863.04
2023-05-14T03:48:11.155Z,100863.00
2023-05-14T03:49:11.181Z,100860.30
2023-05-14T03:50:11.081Z,100861.94
2023-05-14T03:51:11.078Z,100858.95
2023-05-14T03:52:11.086Z,100861.15
2023-05-14T03:53:11.082Z,100858.80
2023-05-14T03:54:11.077Z,100855.20
2023-05-14T03:55:11.082Z,100853.75
2023-05-14T03:56:11.082Z,100850.11
2023-05-14T03:57:11.078Z,100853.34
2023-05-14T03:58:14.331Z,100847.61
2023-05-14T03:59:11.097Z,100851.55
2023-05-14T04:00:11.082Z,100846.88
2023-05-14T04:01:11.061Z,100848.58
2023-05-14T04:02:11.120Z,100845.60
2023-05-14T04:03:11.258Z,100845.36
2023-05-14T04:04:11.132Z,100847.08
2023-05-14T04:05:11.077Z,100845.22
2023-05-14T04:06:11.063Z,100843.81
2023-05-14T04:07:11.065Z,100841.42
2023-05-14T04:08:11.073Z,100841.52
2023-05-14T04:09:11.064Z,100839.39
2023-05-14T04:10:11.063Z,100836.28
2023-05-14T04:11:11.087Z,100837.99
2023-05-14T04:12:11.064Z,100835.46
2023-05-14T04:13:11.072Z,100834.63
2023-05-14T04:14:11.082Z,100830.92
2023-05-14T04:15:11.067Z,100835.85
2023-05-14T04:16:11.118Z,100834.05
2023-05-14T04:17:11.068Z,100834.48
2023-05-14T04:18:11.120Z,100835.14
2023-05-14T04:19:11.225Z,100839.92
2023-05-14T04:20:11.077Z,100840.28
2023-05-14T04:21:11.067Z,100836.87
2023-05-14T04:22:11.073Z,100842.62
2023-05-14T04:23:11.074Z,100839.68
2023-05-14T04:24:11.070Z,100843.40
2023-05-14T04:25:11.069Z,100839.07
2023-05-14T04:26:11.075Z,100836.90
2023-05-14T04:27:11.066Z,100841.78
2023-05-14T04:28:11.063Z,100841.08
2023-05-14T04:29:11.081Z,100843.37
2023-05-14T04:30:11.070Z,100841.54
2023-05-14T04:31:11.093Z,100838.48
2023-05-14T04:32:11.074Z,100837.14
2023-05-14T04:33:11.099Z,100842.10
2023-05-14T04:34:11.060Z,100837.45
2023-05-14T04:35:11.067Z,100836.26
2023-05-14T04:36:11.062Z,100835.91
2023-05-14T04:37:11.064Z,100831.77
2023-05-14T04:38:11.063Z,100832.09
2023-05-14T04:39:11.065Z,100827.47
2023-05-14T04:40:11.091Z,100833.37
2023-05-14T04:41:11.066Z,100828.79
2023-05-14T04:42:11.074Z,100827.32
2023-05-14T04:43:11.067Z,100829.49
2023-05-14T04:44:11.065Z,100826.20
2023-05-14T04:45:11.071Z,100825.15
2023-05-14T04:46:11.131Z,100822.16
2023-05-14T04:47:11.066Z,100824.21
2023-05-14T04:48:11.089Z,100825.51
2023-05-14T04:49:11.062Z,100823.47
2023-05-14T04:50:11.064Z,100825.28
2023-05-14T04:51:11.083Z,100824.06
2023-05-14T04:52:11.075Z,100824.97
2023-05-14T04:53:11.081Z,100820.25
2023-05-14T04:54:11.103Z,100819.60
2023-05-14T04:55:11.069Z,100816.81
2023-05-14T04:56:11.067Z,100815.29
2023-05-14T04:57:11.071Z,100816.86
2023-05-14T04:58:11.063Z,100815.07
2023-05-14T04:59:11.085Z,100815.07
2023-05-14T05:00:11.071Z,100815.71
2023-05-14T05:01:11.110Z,100812.99
2023-05-14T05:02:11.071Z,100813.50
2023-05-14T05:03:11.193Z,100815.32
2023-05-14T05:04:11.172Z,100817.05
2023-05-14T05:05:11.066Z,100815.83
2023-05-14T05:06:11.075Z,100815.85
2023-05-14T05:07:11.083Z,100813.19
2023-05-14T05:08:11.069Z,100814.80
2023-05-14T05:09:11.076Z,100812.79
2023-05-14T05:10:11.071Z,100812.22
2023-05-14T05:11:11.076Z,100811.08
2023-05-14T05:12:11.072Z,100815.62
2023-05-14T05:13:11.070Z,100811.93
2023-05-14T05:14:11.072Z,100810.24
2023-05-14T05:15:11.103Z,100809.29
2023-05-14T05:16:11.084Z,100809.48
2023-05-14T05:17:11.067Z,100805.10
2023-05-14T05:18:11.075Z,100803.61
2023-05-14T05:19:11.176Z,100806.59
2023-05-14T05:20:13.070Z,100805.52
2023-05-14T05:21:11.075Z,100805.93
2023-05-14T05:22:11.078Z,100803.69
2023-05-14T05:23:11.075Z,100806.39
2023-05-14T05:24:11.073Z,100806.04
2023-05-14T05:25:11.076Z,100805.96
2023-05-14T05:26:11.073Z,100809.20
2023-05-14T05:27:11.078Z,100807.68
2023-05-14T05:28:11.083Z,100808.08
2023-05-14T05:29:11.079Z,100807.70
2023-05-14T05:30:11.085Z,100807.73
2023-05-14T05:31:11.101Z,100809.16
2023-05-14T05:32:11.073Z,100808.06
2023-05-14T05:33:11.096Z,100804.85
2023-05-14T05:34:11.083Z,100804.20
2023-05-14T05:35:11.090Z,100802.82
2023-05-14T05:36:11.082Z,100802.10
2023-05-14T05:37:11.085Z,100799.66
2023-05-14T05:38:11.074Z,100800.23
2023-05-14T05:39:11.077Z,100800.48
2023-05-14T05:40:11.081Z,100798.83
2023-05-14T05:41:11.070Z,100798.26
2023-05-14T05:42:11.088Z,100799.34
2023-05-14T05:43:11.084Z,100795.78
2023-05-14T05:44:11.074Z,100801.37
2023-05-14T05:45:11.079Z,100802.46
2023-05-14T05:46:11.113Z,100802.22
2023-05-14T05:47:11.071Z,100800.53
2023-05-14T05:48:11.079Z,100799.11
2023-05-14T05:49:11.090Z,100801.00
2023-05-14T05:50:11.074Z,100802.07
2023-05-14T05:51:11.081Z,100804.13
2023-05-14T05:52:11.080Z,100805.07
2023-05-14T05:53:11.075Z,100804.90
2023-05-14T05:54:11.074Z,100803.45
2023-05-14T05:55:11.095Z,100805.73
2023-05-14T05:56:11.079Z,100807.51
2023-05-14T05:57:11.077Z,100807.27
2023-05-14T05:58:11.081Z,100803.90
2023-05-14T05:59:11.080Z,100804.83
2023-05-14T06:00:15.099Z,100803.71
2023-05-14T06:01:11.079Z,100802.10
2023-05-14T06:02:11.095Z,100800.53
2023-05-14T06:03:11.120Z,100801.04
2023-05-14T06:04:11.087Z,100799.31
2023-05-14T06:05:11.120Z,100800.31
2023-05-14T06:06:11.076Z,100800.23
2023-05-14T06:07:11.074Z,100800.41
2023-05-14T06:08:11.096Z,100801.84
2023-05-14T06:09:11.077Z,100794.74
2023-05-14T06:10:11.080Z,100795.57
2023-05-14T06:11:11.085Z,100797.23
2023-05-14T06:12:11.076Z,100800.27
2023-05-14T06:13:11.081Z,100804.67
2023-05-14T06:14:11.095Z,100801.88
2023-05-14T06:15:11.079Z,100803.45
2023-05-14T06:16:11.096Z,100806.21
2023-05-14T06:17:11.087Z,100801.63
2023-05-14T06:18:11.079Z,100799.06
2023-05-14T06:19:11.231Z,100799.25
2023-05-14T06:20:11.079Z,100797.12
2023-05-14T06:21:11.079Z,100801.93
2023-05-14T06:22:11.079Z,100798.36
2023-05-14T06:23:11.083Z,100800.06
2023-05-14T06:24:11.080Z,100795.76
2023-05-14T06:25:11.080Z,100797.41
2023-05-14T06:26:11.081Z,100797.73
2023-05-14T06:27:11.089Z,100795.62
2023-05-14T06:28:11.082Z,100796.33
2023-05-14T06:29:11.080Z,100795.41
2023-05-14T06:30:11.108Z,100791.86
2023-05-14T06:31:11.083Z,100789.77
2023-05-14T06:32:11.101Z,100787.95
2023-05-14T06:33:11.091Z,100788.00
2023-05-14T06:34:11.077Z,100783.19
2023-05-14T06:35:11.082Z,100781.05
2023-05-14T06:36:11.103Z,100778.33
2023-05-14T06:37:11.084Z,100780.36
2023-05-14T06:38:11.079Z,100781.22
2023-05-14T06:39:11.099Z,100781.58
2023-05-14T06:40:11.081Z,100778.39
2023-05-14T06:41:11.082Z,100777.10
2023-05-14T06:42:11.093Z,100774.97
2023-05-14T06:43:11.101Z,100773.94
2023-05-14T06:44:11.083Z,100778.61
2023-05-14T06:45:11.081Z,100772.05
2023-05-14T06:46:11.078Z,100772.66
2023-05-14T06:47:12.088Z,100775.68
2023-05-14T06:48:11.151Z,100773.91
2023-05-14T06:49:11.114Z,100770.16
2023-05-14T06:50:11.116Z,100767.75
2023-05-14T06:51:11.082Z,100767.07
2023-05-14T06:52:11.080Z,100767.48
2023-05-14T06:53:11.085Z,100768.67
2023-05-14T06:54:11.081Z,100768.17
2023-05-14T06:55:11.093Z,100767.50
2023-05-14T06:56:11.078Z,100765.63
2023-05-14T06:57:11.094Z,100769.76
2023-05-14T06:58:11.093Z,100766.60
2023-05-14T06:59:11.075Z,100766.81
2023-05-14T07:00:11.117Z,100763.17
2023-05-14T07:01:11.099Z,100761.97
2023-05-14T07:02:11.062Z,100764.80
2023-05-14T07:03:11.107Z,100759.37
2023-05-14T07:04:11.138Z,100758.95
2023-05-14T07:05:11.061Z,100756.04
2023-05-14T07:06:12.526Z,100754.59
2023-05-14T07:07:11.064Z,100755.95
2023-05-14T07:08:11.083Z,100757.54
2023-05-14T07:09:11.075Z,100754.89
2023-05-14T07:10:11.064Z,100754.49
2023-05-14T07:11:11.064Z,100751.62
2023-05-14T07:12:11.059Z,100750.97
2023-05-14T07:13:11.064Z,100750.17
2023-05-14T07:14:11.081Z,100751.60
2023-05-14T07:15:11.066Z,100751.41
2023-05-14T07:16:11.063Z,100753.65
2023-05-14T07:17:11.126Z,100752.24
2023-05-14T07:18:11.099Z,100750.96
2023-05-14T07:19:11.235Z,100749.42
2023-05-14T07:20:11.067Z,100749.39
2023-05-14T07:21:11.068Z,100744.45
2023-05-14T07:22:11.072Z,100738.77
2023-05-14T07:23:11.066Z,100742.66
2023-05-14T07:24:11.062Z,100745.23
2023-05-14T07:25:11.086Z,100737.86
2023-05-14T07:26:11.066Z,100738.01
2023-05-14T07:27:11.064Z,100738.07
2023-05-14T07:28:11.065Z,100739.95
2023-05-14T07:29:11.069Z,100736.24
2023-05-14T07:30:11.061Z,100735.58
2023-05-14T07:31:12.086Z,100735.88
2023-05-14T07:32:12.219Z,100737.54
2023-05-14T07:33:11.106Z,100732.54
2023-05-14T07:34:11.067Z,100734.35
2023-05-14T07:35:11.076Z,100737.49
2023-05-14T07:36:11.073Z,100737.50
2023-05-14T07:37:11.077Z,100737.50
2023-05-14T07:38:11.074Z,100739.05
2023-05-14T07:39:11.068Z,100737.73
2023-05-14T07:40:11.063Z,100738.66
2023-05-14T07:41:11.073Z,100739.66
2023-05-14T07:42:12.555Z,100739.15
2023-05-14T07:43:13.060Z,100737.46
2023-05-14T07:44:11.072Z,100737.09
2023-05-14T07:45:11.076Z,100737.95
2023-05-14T07:46:11.068Z,100737.51
2023-05-14T07:47:11.160Z,100739.33
2023-05-14T07:48:11.188Z,100740.91
2023-05-14T07:49:11.066Z,100742.41
2023-05-14T07:50:11.068Z,100744.88
2023-05-14T07:51:11.075Z,100743.52
2023-05-14T07:52:11.065Z,100741.36
2023-05-14T07:53:11.068Z,100742.53
2023-05-14T07:54:11.076Z,100741.65
2023-05-14T07:55:11.067Z,100741.20
2023-05-14T07:56:11.068Z,100738.56
2023-05-14T07:57:11.077Z,100738.07
2023-05-14T07:58:11.071Z,100736.75
2023-05-14T07:59:11.069Z,100737.64
2023-05-14T08:00:12.071Z,100733.23
2023-05-14T08:01:12.073Z,100732.36
2023-05-14T08:02:11.078Z,100732.62
2023-05-14T08:03:11.164Z,100731.21
2023-05-14T08:04:11.164Z,100732.91
2023-05-14T08:05:11.065Z,100728.90
2023-05-14T08:06:11.072Z,100733.84
2023-05-14T08:07:11.070Z,100737.64
2023-05-14T08:08:11.074Z,100735.54
2023-05-14T08:09:11.068Z,100734.71
2023-05-14T08:10:11.080Z,100734.56
2023-05-14T08:11:11.136Z,100735.64
2023-05-14T08:12:11.075Z,100735.09
2023-05-14T08:13:11.091Z,100734.21
2023-05-14T08:14:11.072Z,100733.59
2023-05-14T08:15:11.092Z,100733.53
2023-05-14T08:16:11.076Z,100733.91
2023-05-14T08:17:11.160Z,100736.20
2023-05-14T08:18:11.132Z,100731.98
2023-05-14T08:19:11.154Z,100732.19
2023-05-14T08:20:11.079Z,100729.09
2023-05-14T08:21:11.095Z,100726.88
2023-05-14T08:22:11.072Z,100726.45
2023-05-14T08:23:11.075Z,100723.45
2023-05-14T08:24:11.074Z,100725.79
2023-05-14T08:25:11.106Z,100723.14
2023-05-14T08:26:11.076Z,100717.20
2023-05-14T08:27:11.084Z,100716.51
2023-05-14T08:28:11.078Z,100715.91
2023-05-14T08:29:12.304Z,100714.12
2023-05-14T08:30:11.080Z,100711.47
2023-05-14T08:31:11.113Z,100714.99
2023-05-14T08:32:22.048Z,100712.35
2023-05-14T08:33:13.111Z,100712.54
2023-05-14T08:34:11.093Z,100714.25
2023-05-14T08:35:11.077Z,100709.65
2023-05-14T08:36:11.077Z,100711.67
2023-05-14T08:37:11.082Z,100706.45
2023-05-14T08:38:11.079Z,100705.07
2023-05-14T08:39:11.079Z,100708.14
2023-05-14T08:40:11.091Z,100704.64
2023-05-14T08:41:11.094Z,100705.47
2023-05-14T08:42:11.090Z,100704.83
2023-05-14T08:43:11.090Z,100706.75
2023-05-14T08:44:14.100Z,100706.80
2023-05-14T08:45:18.141Z,100710.52
2023-05-14T08:46:13.091Z,100709.41
2023-05-14T08:47:11.095Z,100705.88
2023-05-14T08:48:15.173Z,100703.20
2023-05-14T08:49:21.081Z,100703.04
2023-05-14T08:50:11.084Z,100701.39
2023-05-14T08:51:11.085Z,100698.48
2023-05-14T08:52:13.080Z,100691.19
2023-05-14T08:53:11.081Z,100689.30
2023-05-14T08:54:11.089Z,100693.02
2023-05-14T08:55:11.078Z,100690.11
2023-05-14T08:56:11.082Z,100685.00
2023-05-14T08:57:13.104Z,100684.30
2023-05-14T08:58:11.083Z,100681.22
2023-05-14T08:59:11.077Z,100680.29
2023-05-14T09:00:15.085Z,100676.53
2023-05-14T09:01:11.081Z,100675.36
2023-05-14T09:02:12.155Z,100675.51
2023-05-14T09:03:11.146Z,100676.64
2023-05-14T09:04:12.159Z,100671.89
2023-05-14T09:05:11.089Z,100671.82
2023-05-14T09:06:11.081Z,100669.72
2023-05-14T09:07:11.087Z,100672.23
2023-05-14T09:08:11.075Z,100675.29
2023-05-14T09:09:11.094Z,100671.75
2023-05-14T09:10:11.150Z,100673.21
2023-05-14T09:11:11.084Z,100670.67
2023-05-14T09:12:11.079Z,100665.59
2023-05-14T09:13:11.083Z,100667.01
2023-05-14T09:14:11.094Z,100665.62
2023-05-14T09:15:11.088Z,100662.31
2023-05-14T09:16:11.103Z,100659.30
2023-05-14T09:17:11.082Z,100660.57
2023-05-14T09:18:11.122Z,100657.45
2023-05-14T09:19:11.238Z,100656.29
2023-05-14T09:20:12.089Z,100658.36
2023-05-14T09:21:11.078Z,100657.60
2023-05-14T09:22:13.087Z,100655.57
2023-05-14T09:23:11.090Z,100659.04
2023-05-14T09:24:15.129Z,100661.56
2023-05-14T09:25:11.079Z,100657.59
2023-05-14T09:26:11.090Z,100657.20
2023-05-14T09:27:15.086Z,100654.94
2023-05-14T09:28:11.086Z,100655.64
2023-05-14T09:29:11.085Z,100653.89
2023-05-14T09:30:13.109Z,100649.11
2023-05-14T09:31:11.161Z,100648.92
2023-05-14T09:32:11.083Z,100653.70
2023-05-14T09:33:12.083Z,100650.29
2023-05-14T09:34:11.080Z,100648.91
2023-05-14T09:35:15.088Z,100646.26
2023-05-14T09:36:11.138Z,100645.60
2023-05-14T09:37:11.091Z,100646.65
2023-05-14T09:38:11.081Z,100647.64
2023-05-14T09:39:11.100Z,100645.33
2023-05-14T09:40:11.092Z,100651.86
2023-05-14T09:41:11.082Z,100656.69
2023-05-14T09:42:11.088Z,100652.79
2023-05-14T09:43:11.088Z,100654.08
2023-05-14T09:44:11.089Z,100657.37
2023-05-14T09:45:11.101Z,100656.99
2023-05-14T09:46:11.089Z,100657.70
2023-05-14T09:47:11.111Z,100656.31
2023-05-14T09:48:11.224Z,100656.05
2023-05-14T09:49:11.086Z,100652.32
2023-05-14T09:50:11.098Z,100655.77
2023-05-14T09:51:11.095Z,100656.08
2023-05-14T09:52:11.110Z,100659.66
2023-05-14T09:53:11.085Z,100660.62
2023-05-14T09:54:11.087Z,100660.93
2023-05-14T09:55:11.090Z,100659.40
2023-05-14T09:56:11.089Z,100655.31
2023-05-14T09:57:11.088Z,100657.49
2023-05-14T09:58:11.096Z,100653.22
2023-05-14T09:59:11.094Z,100650.73
2023-05-14T10:00:11.090Z,100653.01
2023-05-14T10:01:11.087Z,100645.89
2023-05-14T10:02:19.063Z,100642.69
2023-05-14T10:03:12.143Z,100643.99
2023-05-14T10:04:11.144Z,100642.57
2023-05-14T10:05:11.065Z,100640.48
2023-05-14T10:06:13.067Z,100637.07
2023-05-14T10:07:11.064Z,100641.02
2023-05-14T10:08:19.071Z,100639.75
2023-05-14T10:09:14.291Z,100641.67
2023-05-14T10:10:13.067Z,100639.10
2023-05-14T10:11:13.070Z,100632.62
2023-05-14T10:12:11.071Z,100635.71
2023-05-14T10:13:14.067Z,100634.18
2023-05-14T10:14:15.061Z,100626.61
2023-05-14T10:15:22.091Z,100626.08
2023-05-14T10:16:17.100Z,100622.76
2023-05-14T10:17:11.161Z,100622.34
2023-05-14T10:18:16.137Z,100617.23
2023-05-14T10:19:11.152Z,100619.91
2023-05-14T10:20:14.072Z,100615.88
2023-05-14T10:21:11.070Z,100614.73
2023-05-14T10:22:12.063Z,100616.16
2023-05-14T10:23:11.072Z,100613.73
2023-05-14T10:24:11.072Z,100612.39
2023-05-14T10:25:11.063Z,100610.48
2023-05-14T10:26:11.081Z,100606.21
2023-05-14T10:27:11.066Z,100608.79
2023-05-14T10:28:11.062Z,100609.54
2023-05-14T10:29:13.082Z,100614.43
2023-05-14T10:30:13.078Z,100616.63
2023-05-14T10:31:13.133Z,100610.91
2023-05-14T10:32:11.067Z,100612.74
2023-05-14T10:33:13.132Z,100612.72
2023-05-14T10:34:19.083Z,100618.29
2023-05-14T10:35:18.074Z,100615.66
2023-05-14T10:36:11.087Z,100611.33
2023-05-14T10:37:11.070Z,100611.27
2023-05-14T10:38:11.071Z,100617.13
2023-05-14T10:39:11.077Z,100620.88
2023-05-14T10:40:11.064Z,100617.43
2023-05-14T10:41:13.067Z,100620.95
2023-05-14T10:42:14.074Z,100616.88
2023-05-14T10:43:11.068Z,100613.62
2023-05-14T10:44:11.073Z,100617.59
2023-05-14T10:45:14.079Z,100618.57
2023-05-14T10:46:11.110Z,100618.64
2023-05-14T10:47:11.066Z,100623.09
2023-05-14T10:48:11.101Z,100623.36
2023-05-14T10:49:11.076Z,100626.25
2023-05-14T10:50:11.085Z,100624.98
2023-05-14T10:51:13.299Z,100622.41
2023-05-14T10:52:11.071Z,100617.02
2023-05-14T10:53:13.089Z,100613.79
2023-05-14T10:54:11.077Z,100613.60
2023-05-14T10:55:15.080Z,100612.93
2023-05-14T10:56:11.070Z,100609.25
2023-05-14T10:57:13.078Z,100608.27
2023-05-14T10:58:11.084Z,100612.50
2023-05-14T10:59:11.072Z,100609.21
2023-05-14T11:00:11.071Z,100609.78
2023-05-14T11:01:11.080Z,100611.88
2023-05-14T11:02:19.073Z,100613.48
2023-05-14T11:03:11.121Z,100610.53
2023-05-14T11:04:15.118Z,100616.51
2023-05-14T11:05:11.091Z,100615.47
2023-05-14T11:06:11.122Z,100613.78
2023-05-14T11:07:11.080Z,100612.24
2023-05-14T11:08:11.082Z,100612.57
2023-05-14T11:09:11.079Z,100609.88
2023-05-14T11:10:17.082Z,100609.37
2023-05-14T11:11:11.097Z,100607.20
2023-05-14T11:12:11.082Z,100606.59
2023-05-14T11:13:11.080Z,100605.87
2023-05-14T11:14:11.082Z,100606.66
2023-05-14T11:15:11.115Z,100603.34
2023-05-14T11:16:21.957Z,100603.39
2023-05-14T11:17:13.127Z,100599.86
2023-05-14T11:18:11.123Z,100598.95
2023-05-14T11:19:11.249Z,100597.31
2023-05-14T11:20:11.098Z,100595.53
2023-05-14T11:21:11.117Z,100599.54
2023-05-14T11:22:11.086Z,100599.25
2023-05-14T11:23:11.080Z,100601.92
2023-05-14T11:24:11.090Z,100599.54